Terminal Aerodrome Forecast
Issued by NWS Shreveport, LA

Home | Current Version | Previous Version | Text Only | Print | Product List | Glossary On
Versions: 1 2 3 4 5 6 7 8 9 10 11 12 13 14 15 16 17 18
000
FTUS44 KSHV 011100
TAFMLU
TAF
KMLU 011137Z 0112/0212 16010KT P6SM VCSH OVC070
     FM011500 19010KT P6SM -RA OVC015
     FM011800 22012G20KT 5SM -RA BR VCTS OVC015CB
     FM020000 32013G22KT P6SM -RA OVC015
     FM020400 33013G22KT P6SM BKN100=

USA.gov is the U.S. government's official web portal to all federal, state and local government web resources and services.